Nearby METAR Reports

 

KTEB - Teterboro, New Jersey, USA
Distance from station: ENE 2mi, 4km
Updated: 04/24/2024 5:51am
Clear
Clear
 Wind from S
Wind: S 5 mph , 7 km/h
Temperature: 50°F , 10°C
Wind Chill: 48°F , 9°C
Dew Point: 36°F , 2°C
Humidity: 58%
Barometer: 29.82 inHg , 1009.8 hPa
Clouds: Clear
Visibility: 10 miles , 16 km
2024/04/24 09:51 KTEB 240951Z 17004KT 10SM CLR 10/02 A2982 RMK AO2 SLP098 T01000017
KNYC - Nyc/Central Park, New York, USA
Distance from station: SE 8mi, 13km
Updated: 04/24/2024 5:51am
Clear
Clear
 Wind from varies
Wind: varies 6 mph , 9 km/h
Temperature: 52°F , 11°C
Dew Point: 36°F , 2°C
Humidity: 54%
Barometer: 29.85 inHg , 1010.8 hPa
Clouds: Clear
Visibility: 10 miles , 16 km
2024/04/24 09:51 KNYC 240951Z AUTO VRB05KT 10SM CLR 11/02 A2985 RMK AO2 SLP101 T01110022 $
 
KCDW - Caldwell, New Jersey, USA
Distance from station: WNW 10mi, 17km
Updated: 04/24/2024 5:53am
Mostly cloudy
Mostly cloudy
 Wind from calm
Wind: Calm
Temperature: 50°F , 10°C
Dew Point: 30°F , -1°C
Humidity: 47%
Barometer: 29.83 inHg , 1010.2 hPa
Clouds: Mostly cloudy
Visibility: 10 miles , 16 km
Cloud details: Mostly cloudy 11000 ft
2024/04/24 09:53 KCDW 240953Z 00000KT 10SM BKN110 10/M01 A2983 RMK AO2 SLP107 T01001006
KLGA - Nyc/La Guardia, New York, USA
Distance from station: ESE 12mi, 19km
Updated: 04/24/2024 5:51am
Overcast
Overcast
 Wind from S
Wind: S 5 mph , 7 km/h
Temperature: 52°F , 11°C
Dew Point: 37°F , 3°C
Humidity: 58%
Barometer: 29.83 inHg , 1010.2 hPa
Clouds: Overcast
Visibility: 10 miles , 16 km
Cloud details: Partly cloudy 11000 ft
Overcast 13000 ft
2024/04/24 09:51 KLGA 240951Z 17004KT 10SM SCT110 OVC130 11/03 A2983 RMK AO2 SLP100 T01060033 $
 
KEWR - Newark, New Jersey, USA
Distance from station: SSW 12mi, 20km
Updated: 04/24/2024 5:51am
Overcast
Overcast
 Wind from S
Wind: S 5 mph , 7 km/h
Temperature: 52°F , 11°C
Dew Point: 36°F , 2°C
Humidity: 54%
Barometer: 29.83 inHg , 1010.2 hPa
Clouds: Overcast
Visibility: 10 miles , 16 km
Cloud details: Partly cloudy 10000 ft
Overcast 13000 ft
2024/04/24 09:51 KEWR 240951Z 18004KT 10SM SCT100 OVC130 11/02 A2983 RMK AO2 SLP102 T01110022 $
KMMU - Morristown Muni, New Jersey, USA
Distance from station: WSW 18mi, 29km
Updated: 04/24/2024 5:55am
Light rain, Overcast
Light rain, Overcast
 Wind from calm
Wind: Calm
Temperature: 48°F , 9°C
Dew Point: 39°F , 4°C
Humidity: 71%
Barometer: 29.83 inHg , 1010.2 hPa
Summary: Light rain
Clouds: Overcast
Visibility: 10 miles , 16 km
Cloud details: Partly cloudy 6500 ft
Partly cloudy 10000 ft
Overcast 11000 ft
2024/04/24 09:55 KMMU 240955Z AUTO 00000KT 10SM -RA SCT065 SCT100 OVC110 09/04 A2983 RMK AO2
 
KJFK - Nyc/Jfk Arpt, New York, USA
Distance from station: SE 23mi, 36km
Updated: 04/24/2024 5:51am
Mostly cloudy
Mostly cloudy
 Wind from S
Wind: S 10 mph , 17 km/h
Temperature: 50°F , 10°C
Wind Chill: 46°F , 8°C
Dew Point: 43°F , 6°C
Humidity: 76%
Barometer: 29.84 inHg , 1010.5 hPa
Clouds: Mostly cloudy
Visibility: 10 miles , 16 km
Cloud details: Partly cloudy 12000 ft
Partly cloudy 17000 ft
Mostly cloudy 25000 ft
2024/04/24 09:51 KJFK 240951Z 19009KT 10SM SCT120 SCT170 BKN250 10/06 A2984 RMK AO2 SLP105 T01000061
KHPN - White Plains, New York, USA
Distance from station: NE 25mi, 40km
Updated: 04/24/2024 5:56am
Few Clouds
Few Clouds
 Wind from SE
Wind: SE 3 mph , 6 km/h
Temperature: 46°F , 8°C
Dew Point: 37°F , 3°C
Humidity: 71%
Barometer: 29.82 inHg , 1009.8 hPa
Clouds: Few Clouds
Visibility: 10 miles , 16 km
Cloud details: Few Clouds 12000 ft
2024/04/24 09:56 KHPN 240956Z 14003KT 10SM FEW120 08/03 A2982 RMK AO2 SLP100 T00780033
 
KSMQ - Somerville, New Jersey, USA
Distance from station: WSW 34mi, 55km
Updated: 04/24/2024 5:53am
Light rain, Overcast
Light rain, Overcast
 Wind from calm
Wind: Calm
Temperature: 46°F , 8°C
Dew Point: 39°F , 4°C
Humidity: 76%
Barometer: 29.82 inHg , 1009.8 hPa
Summary: Light rain
Clouds: Overcast
Visibility: 10 miles , 16 km
Cloud details: Overcast 10000 ft
2024/04/24 09:53 KSMQ 240953Z AUTO 00000KT 10SM -RA OVC100 08/04 A2982 RMK AO2 RAB41 SLP097 P0000 T00830039
K12N - Andover, New Jersey, USA
Distance from station: WNW 36mi, 57km
Updated: 04/24/2024 5:54am

 Wind from calm
Wind: Calm
Temperature: 46°F , 8°C
Dew Point: 36°F , 2°C
Humidity: 66%
Barometer: 29.81 inHg , 1009.5 hPa
2024/04/24 09:54 K12N 240954Z AUTO 00000KT 08/02 A2981 RMK AO1 SLP094 T00830017
 
KFRG - Farmingdale, New York, USA
Distance from station: ESE 36mi, 58km
Updated: 04/24/2024 5:53am
Few Clouds
Few Clouds
 Wind from S
Wind: S 9 mph , 15 km/h
Temperature: 50°F , 10°C
Wind Chill: 46°F , 8°C
Dew Point: 41°F , 5°C
Humidity: 71%
Barometer: 29.85 inHg , 1010.8 hPa
Clouds: Few Clouds
Visibility: 10 miles , 16 km
Cloud details: Few Clouds 11000 ft
2024/04/24 09:53 KFRG 240953Z AUTO 19008KT 10SM FEW110 10/05 A2985 RMK AO2 SLP107 T01000050
KFWN - Sussex, New Jersey, USA
Distance from station: NW 37mi, 60km
Updated: 04/24/2024 5:53am
Mostly cloudy
Mostly cloudy
 Wind from calm
Wind: Calm
Temperature: 48°F , 9°C
Dew Point: 34°F , 1°C
Humidity: 58%
Barometer: 29.82 inHg , 1009.8 hPa
Clouds: Mostly cloudy
Visibility: 10 miles , 16 km
Cloud details: Few Clouds 7000 ft
Partly cloudy 9500 ft
Mostly cloudy 11000 ft
2024/04/24 09:53 KFWN 240953Z AUTO 00000KT 10SM FEW070 SCT095 BKN110 09/01 A2982 RMK AO2 SLP097 T00890006
 
KSWF - Newburgh/Stewart, New York, USA
Distance from station: 0 45mi, 72km
Updated: 04/24/2024 5:45am
Mostly cloudy
Mostly cloudy
 Wind from varies
Wind: varies 5 mph , 7 km/h
Temperature: 48°F , 9°C
Wind Chill: 46°F , 8°C
Dew Point: 30°F , -1°C
Humidity: 50%
Barometer: 29.81 inHg , 1009.5 hPa
Clouds: Mostly cloudy
Visibility: 10 miles , 16 km
Cloud details: Mostly cloudy 7000 ft
2024/04/24 09:45 KSWF 240945Z VRB04KT 10SM BKN070 09/M01 A2981
KMGJ - Montgomery, New York, USA
Distance from station: NNW 47mi, 75km
Updated: 04/24/2024 5:54am
Overcast
Overcast
 Wind from WSW
Wind: WSW 3 mph , 6 km/h
Temperature: 46°F , 8°C
Dew Point: 34°F , 1°C
Humidity: 62%
Barometer: 29.80 inHg , 1009.1 hPa
Clouds: Overcast
Visibility: 10 miles , 16 km
Cloud details: Overcast 10000 ft
2024/04/24 09:54 KMGJ 240954Z AUTO 25003KT 10SM OVC100 08/01 A2980 RMK AO2 SLP093 T00780006
 
KBLM - Belmar/Farmdale, New Jersey, USA
Distance from station: S 47mi, 76km
Updated: 04/24/2024 5:56am
Mostly cloudy
Mostly cloudy
 Wind from SSW
Wind: SSW 5 mph , 7 km/h
Temperature: 50°F , 10°C
Wind Chill: 48°F , 9°C
Dew Point: 37°F , 3°C
Humidity: 62%
Barometer: 29.85 inHg , 1010.8 hPa
Clouds: Mostly cloudy
Visibility: 10 miles , 16 km
Cloud details: Mostly cloudy 12000 ft
2024/04/24 09:56 KBLM 240956Z AUTO 21004KT 10SM BKN120 10/03 A2985 RMK AO2 SLP109 T01000033
KDXR - Danbury, Connecticut, USA
Distance from station: NE 47mi, 76km
Updated: 04/24/2024 5:53am
Clear
Clear
 Wind from calm
Wind: Calm
Temperature: 48°F , 9°C
Dew Point: 36°F , 2°C
Humidity: 62%
Barometer: 29.84 inHg , 1010.5 hPa
Clouds: Clear
Visibility: 10 miles , 16 km
2024/04/24 09:53 KDXR 240953Z AUTO 00000KT 10SM CLR 09/02 A2984 RMK AO2 SLP104 T00890022 $
 
KISP - Islip, New York, USA
Distance from station: E 52mi, 83km
Updated: 04/24/2024 5:56am
Mostly cloudy
Mostly cloudy
 Wind from S
Wind: S 9 mph , 15 km/h
Temperature: 48°F , 9°C
Wind Chill: 44°F , 7°C
Dew Point: 39°F , 4°C
Humidity: 71%
Barometer: 29.85 inHg , 1010.8 hPa
Clouds: Mostly cloudy
Visibility: 10 miles , 16 km
Cloud details: Few Clouds 10000 ft
Mostly cloudy 13000 ft
Mostly cloudy 25000 ft
2024/04/24 09:56 KISP 240956Z 17008KT 10SM FEW100 BKN130 BKN250 09/04 A2985 RMK AO2 SLP108 T00940039
KBDR - Bridgeport, Connecticut, USA
Distance from station: ENE 54mi, 87km
Updated: 04/24/2024 5:52am
Few Clouds
Few Clouds
 Wind from SSW
Wind: SSW 8 mph , 13 km/h
Temperature: 50°F , 10°C
Wind Chill: 47°F , 8°C
Dew Point: 39°F , 4°C
Humidity: 67%
Barometer: 29.84 inHg , 1010.5 hPa
Clouds: Few Clouds
Visibility: 10 miles , 16 km
Cloud details: Few Clouds 12000 ft
2024/04/24 09:52 KBDR 240952Z AUTO 20007KT 10SM FEW120 10/04 A2984 RMK AO2 SLP106 T01000039 $
 
KTTN - Trenton, New Jersey, USA
Distance from station: SW 55mi, 88km
Updated: 04/24/2024 5:53am
Overcast
Overcast
 Wind from calm
Wind: Calm
Temperature: 48°F , 9°C
Dew Point: 37°F , 3°C
Humidity: 66%
Barometer: 29.83 inHg , 1010.2 hPa
Clouds: Overcast
Visibility: 10 miles , 16 km
Cloud details: Overcast 10000 ft
2024/04/24 09:53 KTTN 240953Z 00000KT 10SM OVC100 09/03 A2983 RMK AO2 SLP094 T00890028
KPOU - Poughkeepsie, New York, USA
Distance from station: N 55mi, 89km
Updated: 04/24/2024 5:53am
Overcast
Overcast
 Wind from SSE
Wind: SSE 5 mph , 7 km/h
Temperature: 48°F , 9°C
Wind Chill: 46°F , 8°C
Dew Point: 36°F , 2°C
Humidity: 62%
Barometer: 29.81 inHg , 1009.5 hPa
Clouds: Overcast
Visibility: 10 miles , 16 km
Cloud details: Mostly cloudy 10000 ft
Overcast 11000 ft
2024/04/24 09:53 KPOU 240953Z AUTO 15004KT 10SM BKN100 OVC110 09/02 A2981 RMK AO2 SLP091 T00940017
 
KNEL - Lakehurst Nas, New Jersey, USA
Distance from station: SSW 59mi, 95km
Updated: 04/24/2024 6:00am
Mostly cloudy
Mostly cloudy
 Wind from calm
Wind: Calm
Temperature: 50°F , 10°C
Dew Point: 39°F , 4°C
Humidity: 67%
Barometer: 29.83 inHg , 1010.2 hPa
Clouds: Mostly cloudy
Cloud details: Mostly cloudy 12000 ft
2024/04/24 10:00 KNEL 241000Z AUTO 00000KT BKN120 10/04 A2983 RMK AO2 SLP100 T01000039 $
KWRI - Wrightst/Mcguire, New Jersey, USA
Distance from station: SSW 63mi, 102km
Updated: 04/24/2024 5:55am
Mostly cloudy
Mostly cloudy
 Wind from SSW
Wind: SSW 3 mph , 6 km/h
Temperature: 48°F , 9°C
Dew Point: 39°F , 4°C
Humidity: 71%
Barometer: 29.83 inHg , 1010.2 hPa
Clouds: Mostly cloudy
Visibility: 10 miles , 16 km
Cloud details: Mostly cloudy 12000 ft
2024/04/24 09:55 KWRI 240955Z AUTO 20003KT 10SM BKN120 09/04 A2983 RMK AO2 SLP101 T00940040
 
KHWV - Shirley, New York, USA
Distance from station: E 64mi, 103km
Updated: 04/24/2024 5:56am
Clear
Clear
 Wind from S
Wind: S 9 mph , 15 km/h
Temperature: 48°F , 9°C
Wind Chill: 44°F , 7°C
Dew Point: 39°F , 4°C
Humidity: 71%
Barometer: 29.87 inHg , 1011.5 hPa
Clouds: Clear
Visibility: 10 miles , 16 km
2024/04/24 09:56 KHWV 240956Z AUTO 17008KT 10SM CLR 09/04 A2987 RMK AO2 SLP114 T00940044
KMJX - Toms River, New Jersey, USA
Distance from station: S 64mi, 104km
Updated: 04/24/2024 5:56am
Overcast
Overcast
 Wind from SSW
Wind: SSW 3 mph , 6 km/h
Temperature: 50°F , 10°C
Dew Point: 41°F , 5°C
Humidity: 71%
Barometer: 29.85 inHg , 1010.8 hPa
Clouds: Overcast
Visibility: 10 miles , 16 km
Cloud details: Overcast 12000 ft
2024/04/24 09:56 KMJX 240956Z AUTO 21003KT 10SM OVC120 10/05 A2985 RMK AO2 SLP113 T01000050
 
KDYL - Doylestown, Pennsylvania, USA
Distance from station: SW 65mi, 104km
Updated: 04/24/2024 5:54am
Overcast
Overcast
 Wind from S
Wind: S 3 mph , 6 km/h
Temperature: 50°F , 10°C
Dew Point: 39°F , 4°C
Humidity: 67%
Barometer: 29.82 inHg , 1009.8 hPa
Clouds: Overcast
Visibility: 10 miles , 16 km
Cloud details: Overcast 10000 ft
2024/04/24 09:54 KDYL 240954Z AUTO 18003KT 10SM OVC100 10/04 A2982 RMK AO2 SLP096 T01000039 $
KOXC - Oxford/Waterbury, Connecticut, USA
Distance from station: NE 65mi, 105km
Updated: 04/24/2024 5:51am
Few Clouds
Few Clouds
 Wind from S
Wind: S 6 mph , 9 km/h
Temperature: 45°F , 7°C
Wind Chill: 42°F , 6°C
Dew Point: 37°F , 3°C
Humidity: 76%
Barometer: 29.84 inHg , 1010.5 hPa
Clouds: Few Clouds
Visibility: 10 miles , 16 km
Cloud details: Few Clouds 11000 ft
2024/04/24 09:51 KOXC 240951Z AUTO 18005KT 10SM FEW110 07/03 A2984 RMK AO2 SLP120 T00670028
 
KMSV - Monticello, New York, USA
Distance from station: NNW 69mi, 111km
Updated: 03/05/2024 1:38pm
NOT Current
Light rain, Mist, Overcast
Light rain, Mist, Overcast
 Wind from E
Wind: E 8 mph , 13 km/h
Temperature: 43°F , 6°C
Wind Chill: 38°F , 3°C
Dew Point: 41°F , 5°C
Humidity: 93%
Barometer: 30.09 inHg , 1019 hPa
Summary: Light rain, Mist
Clouds: Overcast
Visibility: 03 miles , 5 km
Cloud details: Overcast 400 ft
2024/03/05 18:38 KMSV 051838Z 09007KT 03SM -RA BR OVC004 06/05 A3009 RMK CIG003V008
KHVN - New Haven/Tweed, Connecticut, USA
Distance from station: ENE 70mi, 112km
Updated: 04/24/2024 5:53am
Partly cloudy
Partly cloudy
 Wind from SSE
Wind: SSE 6 mph , 9 km/h
Temperature: 50°F , 10°C
Wind Chill: 48°F , 9°C
Dew Point: 43°F , 6°C
Humidity: 76%
Barometer: 29.85 inHg , 1010.8 hPa
Clouds: Partly cloudy
Visibility: 10 miles , 16 km
Cloud details: Partly cloudy 11000 ft
2024/04/24 09:53 KHVN 240953Z 15005KT 10SM SCT110 10/06 A2985 RMK AO2 SLP108 T01000056 $
 
KMPO - Mt. Pocono, Pennsylvania, USA
Distance from station: WNW 70mi, 113km
Updated: 04/24/2024 5:53am
Mostly cloudy
Mostly cloudy
 Wind from W
Wind: W 8 mph , 13 km/h
Temperature: 45°F , 7°C
Wind Chill: 41°F , 5°C
Dew Point: 37°F , 3°C
Humidity: 76%
Barometer: 29.79 inHg , 1008.8 hPa
Clouds: Mostly cloudy
Visibility: 10 miles , 16 km
Cloud details: Few Clouds 5500 ft
Mostly cloudy 7000 ft
Mostly cloudy 11000 ft
2024/04/24 09:53 KMPO 240953Z AUTO 26007KT 10SM FEW055 BKN070 BKN110 07/03 A2979 RMK AO2 SLP088 T00720028
KPNE - Philadelphia/Ne, Pennsylvania, USA
Distance from station: SW 72mi, 116km
Updated: 04/24/2024 5:54am
Overcast
Overcast
 Wind from calm
Wind: Calm
Temperature: 52°F , 11°C
Dew Point: 39°F , 4°C
Humidity: 62%
Barometer: 29.85 inHg , 1010.8 hPa
Clouds: Overcast
Visibility: 10 miles , 16 km
Cloud details: Overcast 10000 ft
2024/04/24 09:54 KPNE 240954Z 00000KT 10SM OVC100 11/04 A2985 RMK AO2 SLP107 T01060039
 
KABE - Allentown, Pennsylvania, USA
Distance from station: W 73mi, 117km
Updated: 04/24/2024 5:51am
Light rain, Overcast
Light rain, Overcast
 Wind from N
Wind: N 3 mph , 6 km/h
Temperature: 46°F , 8°C
Dew Point: 39°F , 4°C
Humidity: 76%
Barometer: 29.82 inHg , 1009.8 hPa
Summary: Light rain
Clouds: Overcast
Visibility: 10 miles , 16 km
Cloud details: Overcast 10000 ft
2024/04/24 09:51 KABE 240951Z AUTO 01003KT 10SM -RA OVC100 08/04 A2982 RMK AO2 RAB12 SLP098 P0000 T00830039
KUKT - Quakertown Arp, Pennsylvania, USA
Distance from station: WSW 74mi, 119km
Updated: 04/24/2024 5:55am
Overcast
Overcast
 Wind from calm
Wind: Calm
Temperature: 48°F , 9°C
Dew Point: 41°F , 5°C
Humidity: 76%
Barometer: 29.83 inHg , 1010.2 hPa
Clouds: Overcast
Visibility: 10 miles , 16 km
Cloud details: Overcast 10000 ft
2024/04/24 09:55 KUKT 240955Z AUTO 00000KT 10SM OVC100 09/05 A2983 RMK AO2
 
KVAY - Mount Holly, New Jersey, USA
Distance from station: SSW 75mi, 120km
Updated: 04/24/2024 5:54am
Partly cloudy
Partly cloudy
 Wind from calm
Wind: Calm
Temperature: 48°F , 9°C
Dew Point: 39°F , 4°C
Humidity: 71%
Barometer: 29.84 inHg , 1010.5 hPa
Clouds: Partly cloudy
Visibility: 10 miles , 16 km
Cloud details: Partly cloudy 12000 ft
2024/04/24 09:54 KVAY 240954Z AUTO 00000KT 10SM SCT120 09/04 A2984 RMK AO2 SLP103 T00890044
KXLL - Allentown Queen, Pennsylvania, USA
Distance from station: WSW 76mi, 122km
Updated: 04/24/2024 5:55am
Light rain, Partly cloudy
Light rain, Partly cloudy
 Wind from calm
Wind: Calm
Temperature: 50°F , 10°C
Dew Point: 41°F , 5°C
Humidity: 71%
Barometer: 29.84 inHg , 1010.5 hPa
Summary: Light rain
Clouds: Partly cloudy
Visibility: 10 miles , 16 km
Cloud details: Partly cloudy 9000 ft
2024/04/24 09:55 KXLL 240955Z AUTO 00000KT 10SM -RA SCT090 10/05 A2984 RMK AO2
 
KFOK - Westhampton Beac, New York, USA
Distance from station: E 77mi, 124km
Updated: 04/24/2024 5:53am
Few Clouds
Few Clouds
 Wind from S
Wind: S 7 mph , 11 km/h
Temperature: 48°F , 9°C
Wind Chill: 45°F , 7°C
Dew Point: 34°F , 1°C
Humidity: 58%
Barometer: 29.88 inHg , 1011.9 hPa
Clouds: Few Clouds
Visibility: 10 miles , 16 km
Cloud details: Few Clouds 11000 ft
2024/04/24 09:53 KFOK 240953Z AUTO 17006KT 10SM FEW110 09/01 A2988 RMK AO1 SLP118 T00890006
KLOM - Philly Wings F, Pennsylvania, USA
Distance from station: SW 79mi, 128km
Updated: 04/24/2024 5:55am
Overcast
Overcast
 Wind from calm
Wind: Calm
Temperature: 48°F , 9°C
Dew Point: 43°F , 6°C
Humidity: 82%
Barometer: 29.84 inHg , 1010.5 hPa
Clouds: Overcast
Visibility: 10 miles , 16 km
Cloud details: Overcast 9000 ft
2024/04/24 09:55 KLOM 240955Z AUTO 00000KT 10SM OVC090 09/06 A2984 RMK AO2 T00920058
 
KMMK - Meriden, Connecticut, USA
Distance from station: NE 80mi, 128km
Updated: 04/24/2024 5:53am
Few Clouds
Few Clouds
 Wind from S
Wind: S 5 mph , 7 km/h
Temperature: 46°F , 8°C
Wind Chill: 44°F , 7°C
Dew Point: 37°F , 3°C
Humidity: 71%
Barometer: 29.85 inHg , 1010.8 hPa
Clouds: Few Clouds
Visibility: 10 miles , 16 km
Cloud details: Few Clouds 11000 ft
2024/04/24 09:53 KMMK 240953Z AUTO 17004KT 10SM FEW110 08/03 A2985 RMK AO2 SLP106 T00780028
KPTW - Pottstown, Pennsylvania, USA
Distance from station: WSW 88mi, 141km
Updated: 04/24/2024 5:54am
Overcast
Overcast
 Wind from S
Wind: S 3 mph , 6 km/h
Temperature: 52°F , 11°C
Dew Point: 39°F , 4°C
Humidity: 62%
Barometer: 29.84 inHg , 1010.5 hPa
Clouds: Overcast
Visibility: 10 miles , 16 km
Cloud details: Overcast 9500 ft
2024/04/24 09:54 KPTW 240954Z AUTO 17003KT 10SM OVC095 11/04 A2984 RMK AO2 RAB11E21 SLP100 P0000 T01060044
 
KSNC - Chester, Connecticut, USA
Distance from station: ENE 90mi, 146km
Updated: 04/24/2024 5:55am
Clear
Clear
 Wind from SSE
Wind: SSE 7 mph , 11 km/h
Temperature: 45°F , 7°C
Wind Chill: 41°F , 5°C
Dew Point: 39°F , 4°C
Humidity: 81%
Barometer: 29.85 inHg , 1010.8 hPa
Clouds: Clear
Visibility: 10 miles , 16 km
2024/04/24 09:55 KSNC 240955Z AUTO 16006KT 10SM CLR 07/04 A2985 RMK AO2
KPHL - Philadelphia, Pennsylvania, USA
Distance from station: SW 91mi, 146km
Updated: 04/24/2024 5:54am
Overcast
Overcast
 Wind from calm
Wind: Calm
Temperature: 54°F , 12°C
Dew Point: 39°F , 4°C
Humidity: 58%
Barometer: 29.84 inHg , 1010.5 hPa
Clouds: Overcast
Visibility: 10 miles , 16 km
Cloud details: Overcast 11000 ft
2024/04/24 09:54 KPHL 240954Z 00000KT 10SM OVC110 12/04 A2984 RMK AO2 SLP104 T01170044 $
 
KAVP - Avoca/Wilkes B., Pennsylvania, USA
Distance from station: WNW 91mi, 147km
Updated: 04/24/2024 5:54am
Overcast
Overcast
 Wind from SW
Wind: SW 5 mph , 7 km/h
Temperature: 54°F , 12°C
Dew Point: 37°F , 3°C
Humidity: 54%
Barometer: 29.79 inHg , 1008.8 hPa
Clouds: Overcast
Visibility: 10 miles , 16 km
Cloud details: Overcast 6000 ft
2024/04/24 09:54 KAVP 240954Z 23004KT 10SM OVC060 12/03 A2979 RMK AO2 SLP085 T01170033
KHFD - Hartford/Brainar, Connecticut, USA
Distance from station: NE 96mi, 155km
Updated: 04/24/2024 5:53am
Few Clouds
Few Clouds
 Wind from S
Wind: S 8 mph , 13 km/h
Temperature: 46°F , 8°C
Wind Chill: 42°F , 6°C
Dew Point: 37°F , 3°C
Humidity: 71%
Barometer: 29.84 inHg , 1010.5 hPa
Clouds: Few Clouds
Visibility: 10 miles , 16 km
Cloud details: Few Clouds 11000 ft
2024/04/24 09:53 KHFD 240953Z AUTO 18007KT 10SM FEW110 08/03 A2984 RMK AO2 SLP106 T00830028
 
KHTO - East Hampton, New York, USA
Distance from station: E 96mi, 155km
Updated: 05/21/2022 1:35pm
NOT Current
Clear
Clear
 Wind from WNW
Wind: WNW 5 mph , 7 km/h
Temperature: 81°F , 27°C
Heat Index: 83°F , 28°C
Dew Point: 66°F , 19°C
Humidity: 62%
Barometer: 30.00 inHg , 1015.9 hPa
Clouds: Clear
Visibility: 10 miles , 16 km
2022/05/21 17:35 KHTO 211735Z AUTO 30004KT 10SM CLR 27/19 A3000 RMK AO2 T02670193
KACY - Atlantic City, New Jersey, USA
Distance from station: SSW 99mi, 160km
Updated: 04/24/2024 5:54am
Mostly cloudy
Mostly cloudy
 Wind from SSW
Wind: SSW 9 mph , 15 km/h
Temperature: 54°F , 12°C
Dew Point: 45°F , 7°C
Humidity: 72%
Barometer: 29.85 inHg , 1010.8 hPa
Clouds: Mostly cloudy
Visibility: 10 miles , 16 km
Cloud details: Mostly cloudy 12000 ft
2024/04/24 09:54 KACY 240954Z 21008KT 10SM BKN120 12/07 A2985 RMK AO2 SLP109 T01170072